createdAt,value
2022-11-16T00:01:41.361Z,4.62
2022-11-16T00:04:09.742Z,4.54
2022-11-16T00:06:36.186Z,4.56
2022-11-16T00:09:22.137Z,4.56
2022-11-16T00:11:51.251Z,4.49
2022-11-16T00:14:19.206Z,4.50
2022-11-16T00:16:45.658Z,4.56
2022-11-16T00:19:12.919Z,4.55
2022-11-16T00:21:39.926Z,4.50
2022-11-16T00:24:06.799Z,4.50
2022-11-16T00:26:33.369Z,4.51
2022-11-16T00:29:00.249Z,4.52
2022-11-16T00:31:27.071Z,4.54
2022-11-16T00:33:54.036Z,4.52
2022-11-16T00:36:20.950Z,4.60
2022-11-16T00:38:47.916Z,4.45
2022-11-16T00:41:14.437Z,4.50
2022-11-16T00:43:40.979Z,4.45
2022-11-16T00:46:07.469Z,4.48
2022-11-16T00:48:34.156Z,4.52
2022-11-16T00:51:01.018Z,4.49
2022-11-16T00:53:27.765Z,4.55
2022-11-16T00:55:54.266Z,4.46
2022-11-16T00:58:21.106Z,4.41
2022-11-16T01:00:53.992Z,4.39
2022-11-16T01:03:20.643Z,4.42
2022-11-16T01:05:47.209Z,4.44
2022-11-16T01:08:14.502Z,4.42
2022-11-16T01:10:41.578Z,4.46
2022-11-16T01:13:11.243Z,4.37
2022-11-16T01:15:37.871Z,4.36
2022-11-16T01:18:04.335Z,4.37
2022-11-16T01:20:30.875Z,4.38
2022-11-16T01:22:57.484Z,4.40
2022-11-16T01:25:24.136Z,4.34
2022-11-16T01:27:50.751Z,4.40
2022-11-16T01:30:24.716Z,4.35
2022-11-16T01:33:02.037Z,4.32
2022-11-16T01:35:28.668Z,4.31
2022-11-16T01:37:55.360Z,4.31
2022-11-16T01:40:22.512Z,4.33
2022-11-16T01:42:48.950Z,4.34
2022-11-16T01:45:22.568Z,4.33
2022-11-16T01:47:53.604Z,4.32
2022-11-16T01:50:22.854Z,4.36
2022-11-16T01:53:04.103Z,4.37
2022-11-16T01:55:39.846Z,4.34
2022-11-16T01:58:18.158Z,4.36
2022-11-16T02:00:46.958Z,4.37
2022-11-16T02:03:27.593Z,4.38
2022-11-16T02:06:28.415Z,4.35
2022-11-16T02:09:49.444Z,4.38
2022-11-16T02:12:31.218Z,4.36
2022-11-16T02:15:09.793Z,4.36
2022-11-16T02:18:01.767Z,4.35
2022-11-16T02:20:41.581Z,4.31
2022-11-16T02:23:47.565Z,4.35
2022-11-16T02:26:29.094Z,4.36
2022-11-16T02:29:19.005Z,4.37
2022-11-16T02:31:55.402Z,4.32
2022-11-16T02:34:24.678Z,4.26
2022-11-16T02:36:54.641Z,4.22
2022-11-16T02:39:27.199Z,4.25
2022-11-16T02:41:55.975Z,4.29
2022-11-16T02:44:37.102Z,4.22
2022-11-16T02:47:09.203Z,4.22
2022-11-16T02:49:43.504Z,4.30
2022-11-16T02:52:12.166Z,4.29
2022-11-16T02:54:38.627Z,4.32
2022-11-16T02:57:05.026Z,4.34
2022-11-16T02:59:42.901Z,4.29
2022-11-16T03:02:48.573Z,4.26
2022-11-16T03:05:20.277Z,4.25
2022-11-16T03:08:21.176Z,4.30
2022-11-16T03:11:14.387Z,4.30
2022-11-16T03:13:42.814Z,4.20
2022-11-16T03:16:34.400Z,4.21
2022-11-16T03:19:05.604Z,4.25
2022-11-16T03:21:47.151Z,4.23
2022-11-16T03:24:14.717Z,4.25
2022-11-16T03:26:52.752Z,4.22
2022-11-16T03:29:39.139Z,4.20
2022-11-16T03:32:18.930Z,4.20
2022-11-16T03:34:56.707Z,4.22
2022-11-16T03:37:25.748Z,4.28
2022-11-16T03:39:53.749Z,4.26
2022-11-16T03:42:25.942Z,4.24
2022-11-16T03:44:53.577Z,4.25
2022-11-16T03:47:20.143Z,4.20
2022-11-16T03:49:47.672Z,4.30
2022-11-16T03:52:17.779Z,4.43
2022-11-16T03:54:45.143Z,4.38
2022-11-16T03:57:15.589Z,4.41
2022-11-16T03:59:45.920Z,4.39
2022-11-16T04:02:12.863Z,4.48
2022-11-16T04:04:57.878Z,4.44
2022-11-16T04:07:43.208Z,4.45
2022-11-16T04:10:28.933Z,4.49
2022-11-16T04:13:14.610Z,4.48
2022-11-16T04:15:59.682Z,4.48
2022-11-16T04:18:45.011Z,4.49
2022-11-16T04:21:43.233Z,4.64
2022-11-16T04:24:16.371Z,4.67
2022-11-16T04:27:04.545Z,4.63
2022-11-16T04:29:31.971Z,4.66
2022-11-16T04:32:17.159Z,4.69
2022-11-16T04:35:02.371Z,4.73
2022-11-16T04:37:49.616Z,4.79
2022-11-16T04:40:24.106Z,4.76
2022-11-16T04:42:54.796Z,4.76
2022-11-16T04:45:41.375Z,4.73
2022-11-16T04:48:09.678Z,4.74
2022-11-16T04:50:37.934Z,4.90
2022-11-16T04:53:05.478Z,4.96
2022-11-16T04:55:38.303Z,4.84
2022-11-16T04:58:05.134Z,4.75
2022-11-16T05:00:32.372Z,4.86
2022-11-16T05:03:01.512Z,4.97
2022-11-16T05:05:29.006Z,4.95
2022-11-16T05:07:55.865Z,4.89
2022-11-16T05:10:27.003Z,4.83
2022-11-16T05:12:54.396Z,4.76
2022-11-16T05:15:22.277Z,4.82
2022-11-16T05:17:49.946Z,4.81
2022-11-16T05:20:38.787Z,4.77
2022-11-16T05:23:26.705Z,4.83
2022-11-16T05:25:54.287Z,4.89
2022-11-16T05:28:21.627Z,4.79
2022-11-16T05:30:48.164Z,4.78
2022-11-16T05:33:19.592Z,4.90
2022-11-16T05:35:46.206Z,4.76
2022-11-16T05:38:13.937Z,4.79
2022-11-16T05:40:45.236Z,4.94
2022-11-16T05:43:11.993Z,4.92
2022-11-16T05:45:44.778Z,5.02
2022-11-16T05:48:14.207Z,5.08
2022-11-16T05:50:43.042Z,5.06
2022-11-16T05:53:16.857Z,5.00
2022-11-16T05:55:43.467Z,5.05
2022-11-16T05:58:10.516Z,4.99
2022-11-16T06:00:37.634Z,5.15
2022-11-16T06:03:05.387Z,4.97
2022-11-16T06:05:40.062Z,4.92
2022-11-16T06:08:07.522Z,5.01
2022-11-16T06:10:33.969Z,5.08
2022-11-16T06:13:00.414Z,5.11
2022-11-16T06:15:26.892Z,4.95
2022-11-16T06:17:53.339Z,5.09
2022-11-16T06:20:21.016Z,5.07
2022-11-16T06:22:47.479Z,5.05
2022-11-16T06:25:14.373Z,5.12
2022-11-16T06:27:43.359Z,5.17
2022-11-16T06:30:12.752Z,5.07
2022-11-16T06:32:40.048Z,5.01
2022-11-16T06:35:07.564Z,5.08
2022-11-16T06:37:34.557Z,4.97
2022-11-16T06:40:01.036Z,4.99
2022-11-16T06:42:31.241Z,5.08
2022-11-16T06:44:59.058Z,5.02
2022-11-16T06:47:29.710Z,5.10
2022-11-16T06:49:56.226Z,5.11
2022-11-16T06:52:23.661Z,5.15
2022-11-16T06:54:50.519Z,5.20
2022-11-16T06:57:17.602Z,5.08
2022-11-16T06:59:44.479Z,5.13
2022-11-16T07:02:11.717Z,5.10
2022-11-16T07:04:39.062Z,5.18
2022-11-16T07:07:05.660Z,5.19
2022-11-16T07:09:34.392Z,5.34
2022-11-16T07:12:01.016Z,5.35
2022-11-16T07:14:33.872Z,5.38
2022-11-16T07:17:08.082Z,5.43
2022-11-16T07:19:36.728Z,5.35
2022-11-16T07:22:04.243Z,5.44
2022-11-16T07:24:31.189Z,5.36
2022-11-16T07:26:57.729Z,5.49
2022-11-16T07:29:26.340Z,5.54
2022-11-16T07:32:13.065Z,5.51
2022-11-16T07:35:11.585Z,5.45
2022-11-16T07:37:39.029Z,5.45
2022-11-16T07:40:07.697Z,5.50
2022-11-16T07:42:34.137Z,5.60
2022-11-16T07:45:07.331Z,5.65
2022-11-16T07:47:38.291Z,5.58
2022-11-16T07:50:07.819Z,5.72
2022-11-16T07:52:35.181Z,5.79
2022-11-16T07:55:07.057Z,5.81
2022-11-16T07:57:34.289Z,5.81
2022-11-16T08:00:05.849Z,5.92
2022-11-16T08:02:45.920Z,5.93
2022-11-16T08:05:17.462Z,5.94
2022-11-16T08:07:44.399Z,6.01
2022-11-16T08:10:11.422Z,5.87
2022-11-16T08:12:39.452Z,5.93
2022-11-16T08:15:07.261Z,6.00
2022-11-16T08:17:33.741Z,6.04
2022-11-16T08:20:02.797Z,5.92
2022-11-16T08:22:29.888Z,6.01
2022-11-16T08:24:56.638Z,5.98
2022-11-16T08:27:24.833Z,6.12
2022-11-16T08:29:53.983Z,6.15
2022-11-16T08:32:20.964Z,6.10
2022-11-16T08:34:47.983Z,6.11
2022-11-16T08:37:14.907Z,6.20
2022-11-16T08:39:43.815Z,6.30
2022-11-16T08:42:10.307Z,6.22
2022-11-16T08:44:38.250Z,6.35
2022-11-16T08:47:09.563Z,6.28
2022-11-16T08:49:43.993Z,6.34
2022-11-16T08:52:15.074Z,6.38
2022-11-16T08:54:42.917Z,6.55
2022-11-16T08:57:10.460Z,6.43
2022-11-16T08:59:38.883Z,6.38
2022-11-16T09:02:10.148Z,6.53
2022-11-16T09:04:37.332Z,6.64
2022-11-16T09:07:04.158Z,6.58
2022-11-16T09:09:30.649Z,6.59
2022-11-16T09:11:57.113Z,6.65
2022-11-16T09:14:23.618Z,6.65
2022-11-16T09:16:50.059Z,6.63
2022-11-16T09:19:16.586Z,6.63
2022-11-16T09:21:45.466Z,6.58
2022-11-16T09:24:11.916Z,6.60
2022-11-16T09:26:38.398Z,6.52
2022-11-16T09:29:04.879Z,6.72
2022-11-16T09:31:34.556Z,6.77
2022-11-16T09:34:01.009Z,6.65
2022-11-16T09:36:28.815Z,6.72
2022-11-16T09:41:53.706Z,6.90
2022-11-16T09:44:57.708Z,6.81
2022-11-16T09:47:36.035Z,6.78
2022-11-16T09:50:05.396Z,6.84
2022-11-16T09:52:36.980Z,6.88
2022-11-16T09:55:36.658Z,6.92
2022-11-16T09:58:11.505Z,6.97
2022-11-16T10:00:41.535Z,6.93
2022-11-16T10:03:13.453Z,6.92
2022-11-16T10:06:15.270Z,6.95
2022-11-16T10:08:45.373Z,6.97
2022-11-16T10:11:27.776Z,6.98
2022-11-16T10:14:17.354Z,7.07
2022-11-16T10:17:17.472Z,7.01
2022-11-16T10:19:55.885Z,6.99
2022-11-16T10:22:28.179Z,7.09
2022-11-16T10:24:59.602Z,7.15
2022-11-16T10:27:45.703Z,7.09
2022-11-16T10:30:18.034Z,7.12
2022-11-16T10:33:00.338Z,7.21
2022-11-16T10:35:37.090Z,7.20
2022-11-16T10:38:13.589Z,7.17
2022-11-16T10:40:40.648Z,7.12
2022-11-16T10:43:18.729Z,7.15
2022-11-16T10:46:03.691Z,7.25
2022-11-16T10:48:46.290Z,7.30
2022-11-16T10:51:12.753Z,7.33
2022-11-16T10:53:42.434Z,7.33
2022-11-16T10:56:25.427Z,7.34
2022-11-16T10:58:56.263Z,7.32
2022-11-16T11:01:43.373Z,7.30
2022-11-16T11:04:24.848Z,7.35
2022-11-16T11:06:52.644Z,7.38
2022-11-16T11:09:23.738Z,7.37
2022-11-16T11:12:40.008Z,7.43
2022-11-16T11:15:13.351Z,7.43
2022-11-16T11:17:42.885Z,7.45
2022-11-16T11:20:16.041Z,7.49
2022-11-16T11:23:04.524Z,7.60
2022-11-16T11:25:34.214Z,7.53
2022-11-16T11:28:28.748Z,7.52
2022-11-16T11:31:25.713Z,7.61
2022-11-16T11:33:55.575Z,7.56
2022-11-16T11:36:34.950Z,7.57
2022-11-16T11:39:05.663Z,7.52
2022-11-16T11:41:38.913Z,7.52
2022-11-16T11:44:15.019Z,7.59
2022-11-16T11:47:56.825Z,7.58
2022-11-16T11:50:16.618Z,7.63
2022-11-16T11:52:52.647Z,7.69
2022-11-16T11:55:19.303Z,7.67
2022-11-16T11:57:49.377Z,7.69
2022-11-16T12:00:18.043Z,7.68
2022-11-16T12:03:24.283Z,7.68
2022-11-16T12:05:53.443Z,7.72
2022-11-16T12:08:41.278Z,7.69
2022-11-16T12:11:33.456Z,7.74
2022-11-16T12:14:15.207Z,7.76
2022-11-16T12:16:59.919Z,7.74
2022-11-16T12:19:44.339Z,7.76
2022-11-16T12:22:33.454Z,7.78
2022-11-16T12:25:24.905Z,7.76
2022-11-16T12:28:04.357Z,7.78
2022-11-16T12:30:34.818Z,7.83
2022-11-16T12:33:10.196Z,7.87
2022-11-16T12:35:58.303Z,7.81
2022-11-16T12:38:50.460Z,7.78
2022-11-16T12:41:22.932Z,7.83
2022-11-16T12:44:04.045Z,7.86
2022-11-16T12:46:54.688Z,7.84
2022-11-16T12:49:39.889Z,7.89
2022-11-16T12:52:46.275Z,7.94
2022-11-16T12:55:26.411Z,7.90
2022-11-16T12:58:12.657Z,7.87
2022-11-16T13:00:53.590Z,7.83
2022-11-16T13:03:33.209Z,7.88
2022-11-16T13:06:08.084Z,7.98
2022-11-16T13:08:43.651Z,8.01
2022-11-16T13:11:22.424Z,8.01
2022-11-16T13:13:55.094Z,7.87
2022-11-16T13:16:24.175Z,7.91
2022-11-16T13:18:52.158Z,8.03
2022-11-16T13:21:45.281Z,7.86
2022-11-16T13:24:39.720Z,7.93
2022-11-16T13:27:30.699Z,8.02
2022-11-16T13:30:21.386Z,8.07
2022-11-16T13:33:02.860Z,8.07
2022-11-16T13:35:29.549Z,8.08
2022-11-16T13:37:55.999Z,8.12
2022-11-16T13:40:32.814Z,8.10
2022-11-16T13:43:11.443Z,8.12
2022-11-16T13:45:50.675Z,8.11
2022-11-16T13:48:38.409Z,8.10
2022-11-16T13:51:09.032Z,8.13
2022-11-16T13:56:49.491Z,8.12
2022-11-16T13:59:16.554Z,8.04
2022-11-16T14:01:57.892Z,7.91
2022-11-16T14:04:55.765Z,8.05
2022-11-16T14:07:47.235Z,8.07
2022-11-16T14:10:36.808Z,7.84
2022-11-16T14:13:04.801Z,7.77
2022-11-16T14:15:32.458Z,7.77
2022-11-16T14:18:00.864Z,7.92
2022-11-16T14:20:49.267Z,7.82
2022-11-16T14:23:27.993Z,7.79
2022-11-16T14:26:08.707Z,7.73
2022-11-16T14:29:04.449Z,7.80
2022-11-16T14:31:47.578Z,7.65
2022-11-16T14:34:20.801Z,7.59
2022-11-16T14:36:51.699Z,7.59
2022-11-16T14:39:27.015Z,7.72
2022-11-16T14:41:55.022Z,7.82
2022-11-16T14:44:24.490Z,7.86
2022-11-16T14:46:51.646Z,7.84
2022-11-16T14:49:20.344Z,7.85
2022-11-16T14:51:54.854Z,7.84
2022-11-16T14:54:30.084Z,7.80
2022-11-16T14:57:02.220Z,7.75
2022-11-16T14:59:30.213Z,7.78
2022-11-16T15:01:57.988Z,7.77
2022-11-16T15:04:26.578Z,7.75
2022-11-16T15:07:03.668Z,7.78
2022-11-16T15:09:37.303Z,7.69
2022-11-16T15:12:26.862Z,7.71
2022-11-16T15:14:56.046Z,7.74
2022-11-16T15:17:30.047Z,7.66
2022-11-16T15:20:16.535Z,7.60
2022-11-16T15:22:48.509Z,7.61
2022-11-16T15:25:26.004Z,7.63
2022-11-16T15:27:52.986Z,7.55
2022-11-16T15:30:22.985Z,7.57
2022-11-16T15:32:52.092Z,7.63
2022-11-16T15:35:32.511Z,7.51
2022-11-16T15:38:19.992Z,7.49
2022-11-16T15:40:55.255Z,7.51
2022-11-16T15:43:24.967Z,7.53
2022-11-16T15:45:52.902Z,7.52
2022-11-16T15:48:22.949Z,7.48
2022-11-16T15:51:05.188Z,7.43
2022-11-16T15:53:42.804Z,7.51
2022-11-16T15:56:17.170Z,7.50
2022-11-16T15:58:44.057Z,7.48
2022-11-16T16:01:13.072Z,7.45
2022-11-16T16:03:51.120Z,7.44
2022-11-16T16:06:47.960Z,7.50
2022-11-16T16:09:28.084Z,7.49
2022-11-16T16:12:16.564Z,7.43
2022-11-16T16:14:43.446Z,7.46
2022-11-16T16:17:12.468Z,7.42
2022-11-16T16:19:43.086Z,7.36
2022-11-16T16:22:26.299Z,7.29
2022-11-16T16:24:53.579Z,7.29
2022-11-16T16:27:25.353Z,7.31
2022-11-16T16:29:57.247Z,7.34
2022-11-16T16:32:29.577Z,7.30
2022-11-16T16:34:58.134Z,7.27
2022-11-16T16:37:32.690Z,7.25
2022-11-16T16:39:59.999Z,7.23
2022-11-16T16:42:26.750Z,7.19
2022-11-16T16:44:53.676Z,7.13
2022-11-16T16:47:20.934Z,7.17
2022-11-16T16:49:48.866Z,7.18
2022-11-16T16:52:16.030Z,7.32
2022-11-16T16:54:42.886Z,7.25
2022-11-16T16:57:14.637Z,7.26
2022-11-16T16:59:41.651Z,7.22
2022-11-16T17:02:12.939Z,7.22
2022-11-16T17:04:39.614Z,7.12
2022-11-16T17:07:06.464Z,7.14
2022-11-16T17:09:33.015Z,7.12
2022-11-16T17:12:00.155Z,7.09
2022-11-16T17:14:26.624Z,6.97
2022-11-16T17:16:53.092Z,7.10
2022-11-16T17:19:20.891Z,7.08
2022-11-16T17:21:47.416Z,7.11
2022-11-16T17:24:13.856Z,7.05
2022-11-16T17:26:41.108Z,6.95
2022-11-16T17:29:07.574Z,6.92
2022-11-16T17:31:34.035Z,6.93
2022-11-16T17:34:00.526Z,7.02
2022-11-16T17:36:26.958Z,7.07
2022-11-16T17:38:53.667Z,6.98
2022-11-16T17:41:23.815Z,6.96
2022-11-16T17:43:52.960Z,6.95
2022-11-16T17:46:21.530Z,6.95
2022-11-16T17:48:49.003Z,6.99
2022-11-16T17:51:18.805Z,7.00
2022-11-16T17:53:45.428Z,6.96
2022-11-16T17:56:13.961Z,6.97
2022-11-16T17:58:40.908Z,6.95
2022-11-16T18:01:07.589Z,6.94
2022-11-16T18:03:38.614Z,7.02
2022-11-16T18:06:06.951Z,6.88
2022-11-16T18:08:34.600Z,6.85
2022-11-16T18:11:08.295Z,6.88
2022-11-16T18:13:35.878Z,6.87
2022-11-16T18:16:23.930Z,6.85
2022-11-16T18:18:58.579Z,6.93
2022-11-16T18:21:25.672Z,6.82
2022-11-16T18:23:52.655Z,6.88
2022-11-16T18:26:22.390Z,6.87
2022-11-16T18:28:49.857Z,6.84
2022-11-16T18:31:18.985Z,6.73
2022-11-16T18:33:46.153Z,6.82
2022-11-16T18:36:12.729Z,6.89
2022-11-16T18:38:39.544Z,6.77
2022-11-16T18:41:11.830Z,6.80
2022-11-16T18:43:47.061Z,6.74
2022-11-16T18:46:13.477Z,6.74
2022-11-16T18:48:40.847Z,6.75
2022-11-16T18:51:07.311Z,6.81
2022-11-16T18:53:34.277Z,6.52
2022-11-16T18:56:01.036Z,6.50
2022-11-16T19:01:18.361Z,6.57
2022-11-16T19:03:45.104Z,6.67
2022-11-16T19:06:12.109Z,6.67
2022-11-16T19:08:40.293Z,6.61
2022-11-16T19:11:12.636Z,6.62
2022-11-16T19:13:40.708Z,6.59
2022-11-16T19:16:08.571Z,6.65
2022-11-16T19:18:36.318Z,6.60
2022-11-16T19:21:10.417Z,6.55
2022-11-16T19:23:42.830Z,6.36
2022-11-16T19:26:10.002Z,6.39
2022-11-16T19:28:38.019Z,6.49
2022-11-16T19:31:14.955Z,6.51
2022-11-16T19:33:41.730Z,6.55
2022-11-16T19:36:10.371Z,6.56
2022-11-16T19:38:37.180Z,6.53
2022-11-16T19:41:03.898Z,6.42
2022-11-16T19:43:30.420Z,6.36
2022-11-16T19:46:05.429Z,6.42
2022-11-16T19:48:33.028Z,6.48
2022-11-16T19:51:33.027Z,6.45
2022-11-16T19:54:01.358Z,6.51
2022-11-16T19:56:28.563Z,6.48
2022-11-16T19:58:55.237Z,6.64
2022-11-16T20:01:27.855Z,6.64
2022-11-16T20:03:58.217Z,6.57
2022-11-16T20:06:35.528Z,6.42
2022-11-16T20:09:08.561Z,6.40
2022-11-16T20:11:37.078Z,6.40
2022-11-16T20:14:05.297Z,6.32
2022-11-16T20:16:38.628Z,6.35
2022-11-16T20:19:07.193Z,6.19
2022-11-16T20:21:36.152Z,6.33
2022-11-16T20:24:06.719Z,6.41
2022-11-16T20:26:35.096Z,6.38
2022-11-16T20:29:01.610Z,6.47
2022-11-16T20:31:30.500Z,6.49
2022-11-16T20:34:05.242Z,6.40
2022-11-16T20:36:33.023Z,6.37
2022-11-16T20:39:00.538Z,6.31
2022-11-16T20:41:29.169Z,6.43
2022-11-16T20:43:57.436Z,6.32
2022-11-16T20:46:33.138Z,6.23
2022-11-16T20:49:01.658Z,6.37
2022-11-16T20:51:29.276Z,6.15
2022-11-16T20:53:56.038Z,6.15
2022-11-16T20:56:22.575Z,6.29
2022-11-16T20:58:49.432Z,6.23
2022-11-16T21:01:28.530Z,6.30
2022-11-16T21:03:56.104Z,6.19
2022-11-16T21:06:23.149Z,6.06
2022-11-16T21:08:49.726Z,6.23
2022-11-16T21:11:25.289Z,6.30
2022-11-16T21:14:11.151Z,6.23
2022-11-16T21:16:38.143Z,6.32
2022-11-16T21:19:05.705Z,6.21
2022-11-16T21:21:32.636Z,6.23
2022-11-16T21:23:59.409Z,6.07
2022-11-16T21:26:28.295Z,6.29
2022-11-16T21:28:55.704Z,6.07
2022-11-16T21:31:27.960Z,6.06
2022-11-16T21:33:54.652Z,6.27
2022-11-16T21:36:23.248Z,6.17
2022-11-16T21:38:50.032Z,6.21
2022-11-16T21:41:18.821Z,6.19
2022-11-16T21:43:45.458Z,6.32
2022-11-16T21:46:16.750Z,6.07
2022-11-16T21:48:44.075Z,6.05
2022-11-16T21:51:16.051Z,6.10
2022-11-16T21:53:42.855Z,6.01
2022-11-16T21:56:17.879Z,6.08
2022-11-16T21:58:45.064Z,6.01
2022-11-16T22:01:12.664Z,5.96
2022-11-16T22:03:39.350Z,6.04
2022-11-16T22:06:26.214Z,6.00
2022-11-16T22:08:52.842Z,6.05
2022-11-16T22:11:21.984Z,5.87
2022-11-16T22:13:49.438Z,5.99
2022-11-16T22:16:17.151Z,6.03
2022-11-16T22:18:43.994Z,6.13
2022-11-16T22:21:11.084Z,6.16
2022-11-16T22:23:38.189Z,6.11
2022-11-16T22:26:10.298Z,5.97
2022-11-16T22:28:37.434Z,5.95
2022-11-16T22:31:12.614Z,6.05
2022-11-16T22:33:39.460Z,6.06
2022-11-16T22:36:09.131Z,6.06
2022-11-16T22:38:36.335Z,5.97
2022-11-16T22:41:02.878Z,5.89
2022-11-16T22:43:30.669Z,6.00
2022-11-16T22:45:58.915Z,6.01
2022-11-16T22:48:33.425Z,6.10
2022-11-16T22:51:04.901Z,6.15
2022-11-16T22:53:31.465Z,6.05
2022-11-16T22:56:06.156Z,6.11
2022-11-16T22:58:32.943Z,6.18
2022-11-16T23:00:59.375Z,6.17
2022-11-16T23:03:25.886Z,6.03
2022-11-16T23:05:52.358Z,5.93
2022-11-16T23:08:24.657Z,5.82
2022-11-16T23:11:40.325Z,5.87
2022-11-16T23:14:32.106Z,5.88
2022-11-16T23:16:58.886Z,5.78
2022-11-16T23:19:44.373Z,5.78
2022-11-16T23:22:32.771Z,5.80
2022-11-16T23:25:18.688Z,5.91
2022-11-16T23:27:50.829Z,5.95
2022-11-16T23:30:17.657Z,5.90
2022-11-16T23:32:44.129Z,5.92
2022-11-16T23:35:11.185Z,5.83
2022-11-16T23:38:01.696Z,5.91
2022-11-16T23:40:39.747Z,5.98
2022-11-16T23:43:27.938Z,6.05
2022-11-16T23:45:54.366Z,5.78
2022-11-16T23:48:20.802Z,5.77
2022-11-16T23:50:47.338Z,5.82
2022-11-16T23:53:14.213Z,5.79
2022-11-16T23:55:40.949Z,5.80
2022-11-16T23:58:12.539Z,5.72
